Time;durP1;ratioP1;P1;durP2;ratioP2;P2;SDS_P1;SDS_P2;PMS_P1;PMS_P2;Temp;Humidity;BMP_temperature;BMP_pressure;BME280_temperature;BME280_humidity;BME280_pressure;Samples;Min_cycle;Max_cycle;Signal;HPM_P1;HPM_P2
2023/05/21 04:02:39;;;;;;;2.58;1.33;;;11.30;99.90;;;;;;4942903;29;20230;-70
2023/05/21 04:05:07;;;;;;;1.10;1.10;;;11.30;99.90;;;;;;4948874;28;20612;-70
2023/05/21 04:07:33;;;;;;;1.60;1.13;;;11.30;99.90;;;;;;4950812;28;20227;-70
2023/05/21 04:10:00;;;;;;;1.05;1.02;;;11.40;99.90;;;;;;4948072;29;20693;-71
2023/05/21 04:12:27;;;;;;;1.30;1.30;;;11.50;99.90;;;;;;4946418;29;20217;-71
2023/05/21 04:14:54;;;;;;;1.20;1.10;;;11.50;99.90;;;;;;4950274;28;20207;-70
2023/05/21 04:17:21;;;;;;;1.92;1.83;;;11.60;99.90;;;;;;4949785;28;20264;-70
2023/05/21 04:19:49;;;;;;;0.70;0.70;;;11.70;99.90;;;;;;4951086;28;20315;-70
2023/05/21 04:22:16;;;;;;;1.73;1.63;;;11.70;99.90;;;;;;4950845;29;20252;-70
2023/05/21 04:24:45;;;;;;;1.17;1.17;;;11.80;99.90;;;;;;4950535;28;20208;-70
2023/05/21 04:27:12;;;;;;;1.85;1.75;;;12.00;99.90;;;;;;4950062;28;20237;-70
2023/05/21 04:29:41;;;;;;;1.80;1.70;;;12.20;99.90;;;;;;4949685;29;20205;-70
2023/05/21 04:32:08;;;;;;;1.50;1.43;;;12.30;99.90;;;;;;4947350;28;20228;-71
2023/05/21 04:34:35;;;;;;;1.23;1.20;;;12.30;99.90;;;;;;4942842;28;20516;-71
2023/05/21 04:37:03;;;;;;;1.20;1.20;;;12.40;99.90;;;;;;4950399;29;20560;-70
2023/05/21 04:39:31;;;;;;;1.40;1.30;;;12.40;99.90;;;;;;4948039;28;20515;-70
2023/05/21 04:41:57;;;;;;;1.50;1.50;;;12.30;99.90;;;;;;4950465;28;20907;-70
2023/05/21 04:44:24;;;;;;;1.17;1.17;;;12.20;99.90;;;;;;4949324;29;20472;-70
2023/05/21 04:46:51;;;;;;;1.30;1.20;;;12.20;99.90;;;;;;4952647;28;20235;-71
2023/05/21 04:49:19;;;;;;;1.17;1.07;;;12.30;99.90;;;;;;4952059;28;20474;-71
2023/05/21 04:51:46;;;;;;;0.90;0.90;;;12.20;99.90;;;;;;4954229;29;20481;-71
2023/05/21 04:54:14;;;;;;;1.60;1.50;;;12.20;99.90;;;;;;4954666;28;20543;-70
2023/05/21 04:56:41;;;;;;;5.93;2.00;;;12.20;99.90;;;;;;4954575;28;20469;-70
2023/05/21 04:59:08;;;;;;;2.00;1.90;;;12.20;99.90;;;;;;4951367;28;20469;-71
2023/05/21 05:01:37;;;;;;;0.93;0.90;;;12.40;99.90;;;;;;4951150;28;20859;-71
2023/05/21 05:04:04;;;;;;;4.20;1.50;;;12.50;99.90;;;;;;4949730;28;20520;-71
2023/05/21 05:06:31;;;;;;;2.27;1.90;;;12.60;99.90;;;;;;4953641;28;20468;-71
2023/05/21 05:08:58;;;;;;;1.50;1.40;;;12.70;99.90;;;;;;4954726;28;20473;-71
2023/05/21 05:11:26;;;;;;;2.87;1.83;;;12.80;99.90;;;;;;4952397;28;20485;-71
2023/05/21 05:13:53;;;;;;;4.33;2.53;;;12.80;99.90;;;;;;4953301;28;20464;-71
2023/05/21 05:16:23;;;;;;;10.90;2.20;;;12.80;99.90;;;;;;4951891;28;20472;-72
2023/05/21 05:18:51;;;;;;;13.93;1.63;;;12.90;99.90;;;;;;4950986;28;20483;-73
2023/05/21 05:21:17;;;;;;;1.40;1.00;;;12.90;99.90;;;;;;4947803;28;20618;-72
2023/05/21 05:23:44;;;;;;;2.87;1.57;;;12.90;99.90;;;;;;4953036;28;20555;-72
2023/05/21 05:26:11;;;;;;;1.40;1.07;;;12.90;99.90;;;;;;4951234;28;20466;-72
2023/05/21 05:28:39;;;;;;;2.77;2.57;;;12.90;99.90;;;;;;4953344;28;20479;-70
2023/05/21 05:31:06;;;;;;;1.97;1.90;;;13.00;99.90;;;;;;4950280;28;21000;-69
2023/05/21 05:33:33;;;;;;;1.50;1.50;;;13.10;99.90;;;;;;4953657;28;20473;-71
2023/05/21 05:35:59;;;;;;;1.60;1.33;;;13.10;99.90;;;;;;4954130;28;20571;-70
2023/05/21 05:38:26;;;;;;;1.63;1.53;;;13.20;99.90;;;;;;4951454;29;20464;-71
2023/05/21 05:40:53;;;;;;;10.13;1.90;;;13.20;99.90;;;;;;4952837;28;20495;-71
2023/05/21 05:43:20;;;;;;;1.70;1.60;;;13.30;99.90;;;;;;4951785;29;20631;-70
2023/05/21 05:45:48;;;;;;;1.97;1.97;;;13.40;99.90;;;;;;4952946;28;20468;-71
2023/05/21 05:48:15;;;;;;;1.33;1.30;;;13.50;99.90;;;;;;4951017;28;20480;-71
2023/05/21 05:50:42;;;;;;;2.03;1.93;;;13.60;99.90;;;;;;4954657;28;20830;-70
2023/05/21 05:53:11;;;;;;;1.67;1.57;;;13.70;99.90;;;;;;4954063;28;20476;-73
2023/05/21 05:55:38;;;;;;;1.90;1.80;;;13.90;99.90;;;;;;4955260;28;20479;-70
2023/05/21 05:58:05;;;;;;;1.40;1.40;;;14.00;99.90;;;;;;4951696;28;20484;-70
2023/05/21 06:00:32;;;;;;;2.40;1.50;;;14.30;99.90;;;;;;4952855;28;20501;-70
2023/05/21 06:03:00;;;;;;;2.40;2.30;;;14.70;99.90;;;;;;4953194;28;20500;-71
2023/05/21 06:05:27;;;;;;;1.23;1.23;;;15.00;99.90;;;;;;4945931;28;20466;-71
2023/05/21 06:07:54;;;;;;;2.60;2.50;;;15.30;99.90;;;;;;4949449;29;20477;-71
2023/05/21 06:10:21;;;;;;;2.37;2.23;;;15.80;99.90;;;;;;4952505;28;20476;-70
2023/05/21 06:12:48;;;;;;;2.50;1.80;;;16.30;99.90;;;;;;4953550;28;20476;-70
2023/05/21 06:15:15;;;;;;;1.77;1.67;;;16.50;99.90;;;;;;4952780;28;20473;-71
2023/05/21 06:17:42;;;;;;;6.43;1.80;;;16.60;99.90;;;;;;4952569;28;21116;-71
2023/05/21 06:20:11;;;;;;;3.10;3.00;;;16.90;99.90;;;;;;4953076;28;20469;-71
2023/05/21 06:22:38;;;;;;;1.90;1.90;;;17.30;99.90;;;;;;4958755;28;20566;-71
2023/05/21 06:25:06;;;;;;;1.87;1.87;;;17.60;99.90;;;;;;4946973;29;20465;-71
2023/05/21 06:27:33;;;;;;;1.67;1.57;;;18.00;99.90;;;;;;4950199;28;20479;-70
2023/05/21 06:30:00;;;;;;;2.07;1.97;;;18.60;99.90;;;;;;4953370;28;20473;-71
2023/05/21 06:32:27;;;;;;;2.47;2.43;;;18.90;99.90;;;;;;4949739;28;20496;-72
2023/05/21 06:34:54;;;;;;;1.93;1.70;;;19.10;99.90;;;;;;4950321;28;20469;-70
2023/05/21 06:37:22;;;;;;;2.60;2.50;;;19.40;99.90;;;;;;4951962;28;20551;-71
2023/05/21 06:39:49;;;;;;;2.10;2.10;;;19.70;99.90;;;;;;4952271;28;20854;-71
2023/05/21 06:42:16;;;;;;;1.90;1.80;;;19.90;99.90;;;;;;4953432;28;20886;-73
2023/05/21 06:44:43;;;;;;;2.27;2.10;;;20.40;99.90;;;;;;4949184;28;20475;-70
2023/05/21 06:47:10;;;;;;;2.17;2.07;;;20.60;99.90;;;;;;4951532;28;20838;-70
2023/05/21 06:49:37;;;;;;;3.20;2.70;;;20.80;99.90;;;;;;4951020;28;20913;-71
2023/05/21 06:52:04;;;;;;;2.90;2.70;;;21.10;99.90;;;;;;4952358;28;20494;-71
2023/05/21 06:54:32;;;;;;;3.33;2.87;;;21.40;99.90;;;;;;4948568;29;20473;-70
2023/05/21 06:56:58;;;;;;;2.03;2.03;;;21.10;99.90;;;;;;4949846;28;20583;-71
2023/05/21 06:59:25;;;;;;;2.10;2.10;;;21.40;99.90;;;;;;4950725;28;20466;-70
2023/05/21 07:01:52;;;;;;;2.90;2.50;;;21.80;99.90;;;;;;4948850;28;20852;-72
2023/05/21 07:04:19;;;;;;;2.53;2.27;;;22.10;99.90;;;;;;4948656;29;20486;-71
2023/05/21 07:06:45;;;;;;;2.70;2.60;;;22.00;99.90;;;;;;4948859;28;21436;-70
2023/05/21 07:09:12;;;;;;;1.90;1.90;;;22.20;99.90;;;;;;4952345;28;20988;-70
2023/05/21 07:11:40;;;;;;;2.60;2.50;;;22.00;99.90;;;;;;4950199;28;20797;-71
2023/05/21 07:14:09;;;;;;;3.00;2.80;;;21.80;99.90;;;;;;4947420;29;21027;-70
2023/05/21 07:16:35;;;;;;;2.80;2.60;;;21.80;99.90;;;;;;4950564;28;20550;-69
2023/05/21 07:19:02;;;;;;;2.93;2.73;;;21.80;99.90;;;;;;4944897;28;20464;-69
2023/05/21 07:21:29;;;;;;;3.87;3.50;;;21.90;99.90;;;;;;4952603;28;20843;-68
2023/05/21 07:23:56;;;;;;;3.20;3.10;;;22.00;99.90;;;;;;4949630;28;20490;-70
2023/05/21 07:26:24;;;;;;;3.80;3.50;;;22.30;99.90;;;;;;4952622;28;20521;-70
2023/05/21 07:28:53;;;;;;;3.37;3.17;;;22.60;99.90;;;;;;4951110;28;20467;-70
2023/05/21 07:31:19;;;;;;;3.20;3.10;;;22.80;99.90;;;;;;4950303;28;20598;-70
2023/05/21 07:33:46;;;;;;;2.60;2.50;;;22.60;99.90;;;;;;4951313;28;20954;-70
2023/05/21 07:36:13;;;;;;;3.77;3.57;;;22.50;99.90;;;;;;4950624;28;20467;-71
2023/05/21 07:38:40;;;;;;;4.60;4.30;;;22.50;99.90;;;;;;4950662;28;20738;-70
2023/05/21 07:41:06;;;;;;;3.60;3.33;;;22.50;99.90;;;;;;4951401;28;20501;-69
2023/05/21 07:43:33;;;;;;;3.57;3.17;;;22.60;99.90;;;;;;4950169;28;20509;-70
2023/05/21 07:46:01;;;;;;;9.50;3.77;;;22.50;99.90;;;;;;4950978;28;20505;-68
2023/05/21 07:48:28;;;;;;;3.93;3.73;;;22.50;99.90;;;;;;4950558;28;20834;-69
2023/05/21 07:50:55;;;;;;;4.93;4.60;;;22.70;99.90;;;;;;4950726;28;21009;-71
2023/05/21 07:53:22;;;;;;;3.67;3.57;;;23.00;99.90;;;;;;4950935;28;20492;-70
2023/05/21 07:55:48;;;;;;;4.30;3.90;;;23.10;99.90;;;;;;4951514;28;20477;-71
2023/05/21 07:58:16;;;;;;;3.40;3.30;;;23.20;99.90;;;;;;4948298;28;20992;-71
2023/05/21 08:00:45;;;;;;;4.10;3.03;;;23.40;99.90;;;;;;4951999;29;20557;-70
2023/05/21 08:03:14;;;;;;;3.20;3.10;;;23.30;99.90;;;;;;4941302;28;20497;-71
2023/05/21 08:05:41;;;;;;;4.03;3.73;;;22.70;99.90;;;;;;4950989;28;20560;-71
2023/05/21 08:08:08;;;;;;;4.07;3.77;;;22.50;99.90;;;;;;4952006;28;20472;-68
2023/05/21 08:10:35;;;;;;;4.27;3.97;;;22.20;99.90;;;;;;4950448;28;20503;-71
2023/05/21 08:13:03;;;;;;;5.10;4.70;;;22.00;99.90;;;;;;4948709;28;20481;-71
2023/05/21 08:15:29;;;;;;;4.30;4.10;;;22.00;99.90;;;;;;4949472;28;20473;-70
2023/05/21 08:17:56;;;;;;;4.40;4.10;;;21.70;99.90;;;;;;4949579;28;20472;-70
2023/05/21 08:20:25;;;;;;;4.23;3.93;;;21.30;99.90;;;;;;4950771;28;20478;-71
2023/05/21 08:22:52;;;;;;;4.20;3.90;;;21.10;99.90;;;;;;4950438;28;20612;-70
2023/05/21 08:25:19;;;;;;;4.83;4.40;;;20.80;99.90;;;;;;4951325;28;20461;-70
2023/05/21 08:27:45;;;;;;;4.57;4.27;;;20.60;99.90;;;;;;4947761;28;20465;-69
2023/05/21 08:30:13;;;;;;;5.17;4.77;;;20.60;99.90;;;;;;4950371;28;20480;-72
2023/05/21 08:32:40;;;;;;;3.87;3.67;;;20.60;99.90;;;;;;4941203;28;20484;-70
2023/05/21 08:35:07;;;;;;;4.03;3.70;;;20.40;99.90;;;;;;4947969;28;20474;-70
2023/05/21 08:37:35;;;;;;;4.60;4.30;;;20.50;99.90;;;;;;4947256;29;20468;-70
2023/05/21 08:40:04;;;;;;;3.47;3.27;;;20.50;99.90;;;;;;4951325;28;20471;-70
2023/05/21 08:42:40;;;;;;;4.30;4.00;;;20.60;99.90;;;;;;4949874;28;20850;-70
2023/05/21 08:45:09;;;;;;;5.07;4.77;;;20.70;99.90;;;;;;4949815;29;21039;-72
2023/05/21 08:47:36;;;;;;;5.90;5.50;;;20.70;99.90;;;;;;4948205;29;20968;-69
2023/05/21 08:50:04;;;;;;;5.57;5.17;;;20.80;99.90;;;;;;4952245;28;20821;-69
2023/05/21 08:52:31;;;;;;;4.13;3.93;;;20.80;99.90;;;;;;4947570;28;20857;-70
2023/05/21 08:55:00;;;;;;;3.90;3.70;;;21.00;99.90;;;;;;4948720;28;20504;-70
2023/05/21 08:57:27;;;;;;;4.80;4.47;;;21.00;99.90;;;;;;4949445;28;20474;-69
2023/05/21 08:59:54;;;;;;;4.93;4.53;;;21.20;99.90;;;;;;4950372;28;20861;-70
2023/05/21 09:02:23;;;;;;;5.00;4.70;;;21.30;99.90;;;;;;4944046;28;20658;-69
2023/05/21 09:04:55;;;;;;;5.80;5.30;;;21.40;99.90;;;;;;4950708;28;20841;-71
2023/05/21 09:07:24;;;;;;;7.50;4.67;;;21.30;99.90;;;;;;4948383;28;20788;-71
2023/05/21 09:09:56;;;;;;;5.20;4.77;;;21.40;99.90;;;;;;4949258;28;20466;-71
2023/05/21 09:12:25;;;;;;;7.13;5.97;;;21.50;99.90;;;;;;4944885;28;20526;-71
2023/05/21 09:14:52;;;;;;;5.37;4.63;;;21.40;99.90;;;;;;4950189;28;20476;-70
2023/05/21 09:17:20;;;;;;;4.33;4.03;;;21.50;99.90;;;;;;4949282;28;20476;-70
2023/05/21 09:20:09;;;;;;;5.33;4.80;;;21.40;99.90;;;;;;4951141;28;20483;-70
2023/05/21 09:22:36;;;;;;;7.13;6.23;;;21.60;99.90;;;;;;4947319;28;20489;-70
2023/05/21 09:25:06;;;;;;;5.67;5.27;;;21.50;99.90;;;;;;4943408;28;20468;-70
2023/05/21 09:27:35;;;;;;;6.50;5.90;;;21.40;99.90;;;;;;4946343;29;20479;-70
2023/05/21 09:30:02;;;;;;;4.83;4.53;;;21.30;99.90;;;;;;4951195;28;20969;-70
2023/05/21 09:32:29;;;;;;;7.03;6.33;;;21.50;99.90;;;;;;4948277;28;20484;-70
2023/05/21 09:34:56;;;;;;;6.17;5.57;;;21.50;99.90;;;;;;4949156;28;21163;-70
2023/05/21 09:37:22;;;;;;;7.27;5.43;;;21.50;99.90;;;;;;4954608;28;20464;-70
2023/05/21 09:39:49;;;;;;;5.53;4.87;;;21.60;99.90;;;;;;4958284;28;20479;-70
2023/05/21 09:42:20;;;;;;;5.13;4.73;;;21.70;99.90;;;;;;4952957;28;20492;-70
2023/05/21 09:44:48;;;;;;;6.40;5.80;;;21.70;99.90;;;;;;4952006;28;20507;-70
2023/05/21 09:47:20;;;;;;;5.10;4.70;;;21.70;99.90;;;;;;4947381;29;20516;-69
2023/05/21 09:49:49;;;;;;;6.63;5.73;;;21.70;99.90;;;;;;4950729;28;20516;-70
2023/05/21 09:52:23;;;;;;;6.33;5.93;;;21.80;99.90;;;;;;4951450;28;20532;-70
2023/05/21 09:54:52;;;;;;;5.73;5.23;;;22.00;99.90;;;;;;4942857;28;20468;-70
2023/05/21 09:57:24;;;;;;;6.50;5.87;;;22.10;99.90;;;;;;4942767;29;20818;-69
2023/05/21 09:59:52;;;;;;;7.13;6.47;;;22.30;99.90;;;;;;4943868;28;20509;-69
2023/05/21 10:02:21;;;;;;;6.40;5.80;;;22.20;99.90;;;;;;4953470;28;20488;-69
2023/05/21 10:04:49;;;;;;;6.77;6.37;;;22.20;99.90;;;;;;4951841;29;20515;-72
2023/05/21 10:07:20;;;;;;;6.23;5.63;;;22.30;99.90;;;;;;4952486;28;20490;-72
2023/05/21 10:09:48;;;;;;;6.97;5.63;;;22.60;99.90;;;;;;4953343;28;20556;-73
2023/05/21 10:12:18;;;;;;;6.33;5.93;;;22.70;99.90;;;;;;4951566;28;20490;-73
2023/05/21 10:14:51;;;;;;;7.10;6.53;;;22.80;99.90;;;;;;4949621;28;20474;-73
2023/05/21 10:17:19;;;;;;;5.53;5.13;;;22.90;99.90;;;;;;4953496;28;20823;-73
2023/05/21 10:19:47;;;;;;;5.57;5.17;;;23.10;99.90;;;;;;4951209;28;20475;-73
2023/05/21 10:22:15;;;;;;;6.40;5.80;;;23.20;99.90;;;;;;4952158;28;20502;-73
2023/05/21 10:24:44;;;;;;;5.13;4.70;;;23.40;99.90;;;;;;4952078;28;20543;-72
2023/05/21 10:27:13;;;;;;;6.20;5.70;;;23.30;99.90;;;;;;4953064;28;20503;-72
2023/05/21 10:29:43;;;;;;;5.77;5.27;;;23.20;99.90;;;;;;4951903;28;20544;-71
2023/05/21 10:32:12;;;;;;;7.40;6.53;;;23.30;99.90;;;;;;4950912;28;20496;-73
2023/05/21 10:34:40;;;;;;;6.00;5.47;;;23.30;99.90;;;;;;4953704;28;20484;-73
2023/05/21 10:37:09;;;;;;;6.30;5.80;;;23.30;99.90;;;;;;4961363;28;20471;-74
2023/05/21 10:39:38;;;;;;;7.30;6.70;;;23.40;99.90;;;;;;4958310;28;20466;-73
2023/05/21 10:42:16;;;;;;;5.97;5.57;;;23.50;99.90;;;;;;4949179;28;20494;-75
2023/05/21 10:45:05;;;;;;;5.60;5.20;;;23.40;99.90;;;;;;4952084;28;20486;-73
2023/05/21 10:47:51;;;;;;;4.93;4.63;;;23.40;99.90;;;;;;4950998;28;20504;-72
2023/05/21 10:50:44;;;;;;;4.57;4.37;;;23.60;99.90;;;;;;4941785;29;20940;-74
2023/05/21 10:53:19;;;;;;;5.43;5.07;;;23.60;99.90;;;;;;4938267;28;20558;-73
2023/05/21 10:56:11;;;;;;;4.93;4.53;;;23.70;99.90;;;;;;4952207;29;20482;-72
2023/05/21 10:59:05;;;;;;;6.20;5.60;;;23.90;99.90;;;;;;4951519;28;20474;-72
2023/05/21 11:01:34;;;;;;;5.03;4.70;;;24.10;99.90;;;;;;4948481;28;20511;-73
2023/05/21 11:04:01;;;;;;;8.10;7.40;;;24.20;99.90;;;;;;4946340;28;20492;-73
2023/05/21 11:06:29;;;;;;;6.47;6.03;;;24.10;99.90;;;;;;4951485;28;20472;-73
2023/05/21 11:08:56;;;;;;;4.37;3.93;;;24.10;99.90;;;;;;4952285;28;20471;-73
2023/05/21 11:11:43;;;;;;;5.77;5.27;;;24.30;99.90;;;;;;4953469;28;20500;-71
2023/05/21 11:14:34;;;;;;;6.37;5.90;;;24.20;99.90;;;;;;4949320;28;20456;-74
2023/05/21 11:17:02;;;;;;;6.67;6.17;;;24.30;99.90;;;;;;4952160;28;20458;-74
2023/05/21 11:19:37;;;;;;;4.73;4.23;;;24.40;99.90;;;;;;4947694;28;20579;-73
2023/05/21 11:22:10;;;;;;;5.30;5.00;;;24.50;99.90;;;;;;4950354;28;20572;-72
2023/05/21 11:24:41;;;;;;;5.00;4.80;;;24.50;99.90;;;;;;4947054;28;20559;-71
2023/05/21 11:27:08;;;;;;;7.43;6.93;;;24.40;99.90;;;;;;4942540;29;20473;-73
2023/05/21 11:29:43;;;;;;;6.50;5.90;;;24.50;99.90;;;;;;4952122;28;20584;-71
2023/05/21 11:32:12;;;;;;;5.00;4.67;;;24.40;99.90;;;;;;4944981;29;20495;-72
2023/05/21 11:34:46;;;;;;;4.50;3.77;;;24.50;99.90;;;;;;4950294;28;20508;-73
2023/05/21 11:37:29;;;;;;;5.30;5.00;;;24.70;99.90;;;;;;4944942;29;20467;-72
2023/05/21 11:40:15;;;;;;;9.00;5.77;;;24.80;99.90;;;;;;4952198;28;20476;-71
2023/05/21 11:42:48;;;;;;;6.33;5.83;;;24.90;99.90;;;;;;4950839;29;20476;-72
2023/05/21 11:45:17;;;;;;;5.33;4.93;;;25.10;99.90;;;;;;4951748;28;20830;-73
2023/05/21 11:47:44;;;;;;;4.37;4.07;;;24.90;99.90;;;;;;4953198;28;20460;-72
2023/05/21 11:50:13;;;;;;;6.37;5.77;;;24.80;99.90;;;;;;4947572;28;20472;-71
2023/05/21 11:52:42;;;;;;;5.77;5.37;;;24.70;99.90;;;;;;4952059;28;20508;-72
2023/05/21 11:55:10;;;;;;;6.40;5.90;;;24.70;99.90;;;;;;4945886;28;20948;-72
2023/05/21 11:57:37;;;;;;;5.57;5.17;;;24.90;99.90;;;;;;4951288;28;20472;-71
2023/05/21 12:00:12;;;;;;;6.13;5.73;;;25.00;99.90;;;;;;4947120;28;20477;-73
2023/05/21 12:02:43;;;;;;;6.40;5.87;;;25.20;99.90;;;;;;4950292;29;20490;-73
2023/05/21 12:05:11;;;;;;;5.10;4.70;;;25.30;99.90;;;;;;4950675;29;20499;-71
2023/05/21 12:07:38;;;;;;;6.67;6.13;;;25.40;99.90;;;;;;4948994;29;20520;-72
2023/05/21 12:10:07;;;;;;;5.33;4.90;;;25.60;99.90;;;;;;4952204;28;21000;-73
2023/05/21 12:12:34;;;;;;;6.10;5.80;;;25.70;99.90;;;;;;4948555;29;20499;-73
2023/05/21 12:15:03;;;;;;;5.83;5.37;;;25.90;99.90;;;;;;4953423;28;20591;-72
2023/05/21 12:17:30;;;;;;;7.07;5.53;;;25.90;99.90;;;;;;4951506;28;20823;-73
2023/05/21 12:19:57;;;;;;;6.03;5.53;;;25.80;99.90;;;;;;4951084;28;20471;-70
2023/05/21 12:22:26;;;;;;;6.13;5.70;;;25.80;99.90;;;;;;4946373;28;20498;-71
2023/05/21 12:24:55;;;;;;;5.33;4.93;;;25.80;99.90;;;;;;4951628;28;20486;-71
2023/05/21 12:27:23;;;;;;;5.97;5.60;;;25.90;99.90;;;;;;4952226;28;20478;-72
2023/05/21 12:29:51;;;;;;;5.90;5.43;;;26.00;99.90;;;;;;4949627;28;20957;-72
2023/05/21 12:32:19;;;;;;;7.10;6.50;;;26.10;99.90;;;;;;4947529;29;20900;-72
2023/05/21 12:34:48;;;;;;;6.30;5.80;;;26.20;99.90;;;;;;4950344;28;20466;-72
2023/05/21 12:37:17;;;;;;;5.20;4.90;;;26.20;99.90;;;;;;4952283;28;20484;-72
2023/05/21 12:39:45;;;;;;;6.43;5.93;;;26.30;99.90;;;;;;4950104;28;20871;-72
2023/05/21 12:42:12;;;;;;;6.13;5.70;;;26.50;99.90;;;;;;4951758;28;20992;-71
2023/05/21 12:44:43;;;;;;;5.23;4.83;;;26.50;99.90;;;;;;4950426;28;21015;-73
2023/05/21 12:47:11;;;;;;;5.53;5.23;;;26.70;99.90;;;;;;4949681;28;20494;-73
2023/05/21 12:49:40;;;;;;;5.70;5.50;;;26.70;99.90;;;;;;4950654;28;20586;-73
2023/05/21 12:52:09;;;;;;;4.77;4.40;;;26.70;99.90;;;;;;4944756;29;20519;-72
2023/05/21 12:54:38;;;;;;;5.10;4.80;;;26.80;99.90;;;;;;4951586;28;20524;-72
2023/05/21 12:57:14;;;;;;;4.63;4.43;;;26.90;99.90;;;;;;4952052;29;20476;-72
2023/05/21 12:59:50;;;;;;;4.90;4.70;;;26.90;99.90;;;;;;4951314;28;20471;-71
2023/05/21 13:02:21;;;;;;;5.50;5.10;;;27.00;99.90;;;;;;4948754;28;20495;-73
2023/05/21 13:04:48;;;;;;;6.00;5.60;;;27.00;99.90;;;;;;4948414;28;20475;-70
2023/05/21 13:07:16;;;;;;;6.70;5.93;;;27.10;99.90;;;;;;4951199;28;20482;-71
2023/05/21 13:09:43;;;;;;;5.17;4.87;;;27.10;99.90;;;;;;4952148;28;20520;-72
2023/05/21 13:12:10;;;;;;;5.40;5.00;;;26.70;99.90;;;;;;4955094;28;21050;-72
2023/05/21 13:14:37;;;;;;;5.67;5.27;;;27.10;99.90;;;;;;4952611;28;20534;-72
2023/05/21 13:17:09;;;;;;;4.53;4.33;;;27.20;99.90;;;;;;4954911;28;20477;-72
2023/05/21 13:19:36;;;;;;;5.00;4.70;;;27.20;99.90;;;;;;4953749;28;20504;-71
2023/05/21 13:22:03;;;;;;;4.40;4.20;;;27.10;99.90;;;;;;4951904;29;20502;-73
2023/05/21 13:24:30;;;;;;;4.67;4.47;;;27.10;99.90;;;;;;4952942;28;20480;-72
2023/05/21 13:26:56;;;;;;;4.57;4.33;;;27.00;99.90;;;;;;4956533;28;20560;-72
2023/05/21 13:29:24;;;;;;;3.60;3.40;;;26.90;99.90;;;;;;4953772;28;20482;-72
2023/05/21 13:31:50;;;;;;;3.93;3.73;;;26.90;99.90;;;;;;4947898;28;20496;-72
2023/05/21 13:34:19;;;;;;;3.87;3.67;;;27.10;99.90;;;;;;4947249;29;20468;-73
2023/05/21 13:36:46;;;;;;;4.27;4.07;;;27.20;99.90;;;;;;4950733;28;20812;-72
2023/05/21 13:39:13;;;;;;;3.40;3.30;;;27.30;99.90;;;;;;4951582;28;20543;-71
2023/05/21 13:41:39;;;;;;;4.43;4.20;;;27.20;99.90;;;;;;4952441;28;20804;-71
2023/05/21 13:44:06;;;;;;;4.03;3.83;;;27.10;99.90;;;;;;4951232;28;20483;-71
2023/05/21 13:46:38;;;;;;;4.13;3.93;;;27.10;99.90;;;;;;4953067;28;20594;-71
2023/05/21 13:49:05;;;;;;;4.37;4.10;;;27.10;99.90;;;;;;4953075;28;20492;-70
2023/05/21 13:51:33;;;;;;;4.63;3.43;;;27.10;99.90;;;;;;4952467;28;20491;-71
2023/05/21 13:54:00;;;;;;;3.80;3.60;;;27.10;99.90;;;;;;4952678;28;20480;-71
2023/05/21 13:56:26;;;;;;;5.10;4.13;;;27.20;99.90;;;;;;4951555;28;20580;-71
2023/05/21 13:58:53;;;;;;;6.00;4.53;;;27.00;99.90;;;;;;4948944;29;20476;-72
2023/05/21 14:01:20;;;;;;;5.17;4.87;;;27.00;99.90;;;;;;4952383;28;20863;-71
2023/05/21 14:03:47;;;;;;;4.87;4.63;;;27.00;99.90;;;;;;4951878;28;20478;-72
2023/05/21 14:06:13;;;;;;;3.70;3.60;;;27.00;99.90;;;;;;4952712;29;20531;-72
2023/05/21 14:08:42;;;;;;;4.20;3.90;;;26.90;99.90;;;;;;4953692;28;20481;-72
2023/05/21 14:11:09;;;;;;;4.50;4.20;;;26.90;99.90;;;;;;4952891;28;20496;-72
2023/05/21 14:13:35;;;;;;;4.60;4.30;;;26.90;99.90;;;;;;4951598;28;20559;-72
2023/05/21 14:16:02;;;;;;;4.97;3.87;;;27.10;99.90;;;;;;4953242;28;20479;-72
2023/05/21 14:18:29;;;;;;;3.83;3.73;;;27.10;99.90;;;;;;4948586;28;20492;-71
2023/05/21 14:20:55;;;;;;;4.23;4.03;;;27.10;99.90;;;;;;4952956;28;20492;-72
2023/05/21 14:23:22;;;;;;;4.10;3.90;;;27.10;99.90;;;;;;4953430;28;20468;-72
2023/05/21 14:25:50;;;;;;;4.90;4.60;;;27.20;99.90;;;;;;4953230;28;20611;-72
2023/05/21 14:28:17;;;;;;;4.50;4.33;;;27.30;99.90;;;;;;4952776;28;20488;-72
2023/05/21 14:30:44;;;;;;;4.90;4.47;;;27.30;99.90;;;;;;4951164;28;20547;-72
2023/05/21 14:33:12;;;;;;;4.30;4.10;;;27.20;99.90;;;;;;4953495;28;20933;-73
2023/05/21 14:35:40;;;;;;;4.60;4.30;;;27.10;99.90;;;;;;4952669;28;20495;-72
2023/05/21 14:38:07;;;;;;;3.73;3.63;;;27.10;99.90;;;;;;4942888;28;20574;-74
2023/05/21 14:40:33;;;;;;;3.63;3.33;;;27.10;99.90;;;;;;4949628;28;20484;-72
2023/05/21 14:43:02;;;;;;;4.33;4.13;;;27.10;99.90;;;;;;4953733;28;20535;-71
2023/05/21 14:45:31;;;;;;;5.03;4.73;;;27.30;99.90;;;;;;4952591;28;20482;-73
2023/05/21 14:47:58;;;;;;;3.83;3.63;;;27.40;99.90;;;;;;4950378;28;20870;-72
2023/05/21 14:50:25;;;;;;;4.00;3.80;;;27.40;99.90;;;;;;4952661;29;20474;-71
2023/05/21 14:52:51;;;;;;;4.27;4.10;;;27.40;99.90;;;;;;4951548;28;20524;-72
2023/05/21 14:55:21;;;;;;;3.43;3.23;;;27.50;99.90;;;;;;4951507;28;20461;-71
2023/05/21 14:57:48;;;;;;;3.80;3.70;;;27.40;99.20;;;;;;4946191;29;20486;-72
2023/05/21 15:00:16;;;;;;;3.90;3.70;;;27.40;99.60;;;;;;4952023;28;20472;-72
2023/05/21 15:02:43;;;;;;;2.83;2.70;;;27.40;98.80;;;;;;4952409;28;20478;-72
2023/05/21 15:05:10;;;;;;;3.53;3.43;;;27.40;97.70;;;;;;4952341;29;20494;-73
2023/05/21 15:07:36;;;;;;;3.80;3.70;;;27.40;98.40;;;;;;4949332;28;20551;-72
2023/05/21 15:10:04;;;;;;;2.93;2.83;;;27.50;97.40;;;;;;4950498;28;20606;-73
2023/05/21 15:12:31;;;;;;;3.83;3.70;;;27.50;97.40;;;;;;4952276;29;20488;-74
2023/05/21 15:14:57;;;;;;;5.13;4.73;;;27.60;97.70;;;;;;4951915;28;20465;-72
2023/05/21 15:17:25;;;;;;;3.03;2.93;;;27.70;98.20;;;;;;4952090;28;20466;-73
2023/05/21 15:19:52;;;;;;;3.90;3.70;;;27.80;97.70;;;;;;4952505;28;20476;-73
2023/05/21 15:22:22;;;;;;;2.83;2.73;;;27.90;96.30;;;;;;4952360;28;21690;-72
2023/05/21 15:24:48;;;;;;;3.70;3.60;;;27.90;96.50;;;;;;4950270;29;20487;-72
2023/05/21 15:27:15;;;;;;;2.90;2.80;;;27.90;96.30;;;;;;4952136;28;20496;-71
2023/05/21 15:29:44;;;;;;;3.13;3.03;;;27.80;96.40;;;;;;4952687;28;20575;-72
2023/05/21 15:32:11;;;;;;;3.43;3.20;;;27.70;96.30;;;;;;4948601;28;20496;-71
2023/05/21 15:34:39;;;;;;;4.00;3.73;;;27.50;96.40;;;;;;4952926;28;20463;-71
2023/05/21 15:37:06;;;;;;;3.80;3.50;;;27.40;96.30;;;;;;4951244;28;20846;-72
2023/05/21 15:39:32;;;;;;;4.43;3.53;;;27.40;97.10;;;;;;4951314;28;20987;-73
2023/05/21 15:41:59;;;;;;;3.43;3.33;;;27.30;96.80;;;;;;4952401;28;20606;-72
2023/05/21 15:44:26;;;;;;;4.37;4.20;;;27.20;96.80;;;;;;4952074;28;20471;-73
2023/05/21 15:46:53;;;;;;;4.30;4.00;;;27.20;97.00;;;;;;4952615;28;20468;-72
2023/05/21 15:49:20;;;;;;;4.37;4.17;;;27.20;97.30;;;;;;4954314;28;20468;-72
2023/05/21 15:51:48;;;;;;;4.27;3.40;;;27.10;96.80;;;;;;4950809;28;20488;-73
2023/05/21 15:54:15;;;;;;;3.23;3.03;;;27.10;96.90;;;;;;4953152;28;20571;-73
2023/05/21 15:56:44;;;;;;;4.20;3.90;;;27.00;97.00;;;;;;4958202;28;20468;-71
2023/05/21 15:59:10;;;;;;;4.20;4.00;;;27.00;96.90;;;;;;4958681;28;20467;-72
2023/05/21 16:01:37;;;;;;;3.50;3.40;;;27.00;97.30;;;;;;4958531;28;20497;-72
2023/05/21 16:04:05;;;;;;;3.13;3.03;;;27.00;97.40;;;;;;4959355;28;20478;-72
2023/05/21 16:06:32;;;;;;;3.93;3.73;;;27.00;97.70;;;;;;4959359;28;21016;-72
2023/05/21 16:09:00;;;;;;;3.40;3.27;;;27.00;97.90;;;;;;4974628;28;20471;-73
2023/05/21 16:11:27;;;;;;;3.70;3.50;;;27.00;97.60;;;;;;4957410;28;20508;-72
2023/05/21 16:13:54;;;;;;;4.80;4.57;;;27.00;98.20;;;;;;4954308;28;20475;-73
2023/05/21 16:16:21;;;;;;;3.83;3.53;;;27.10;98.70;;;;;;4953201;28;20464;-73
2023/05/21 16:18:48;;;;;;;3.93;3.73;;;27.10;98.20;;;;;;4949931;29;20472;-72
2023/05/21 16:21:15;;;;;;;4.03;3.83;;;27.00;97.60;;;;;;4949940;28;20504;-72
2023/05/21 16:23:42;;;;;;;3.10;3.00;;;27.00;98.10;;;;;;4951728;28;20548;-72
2023/05/21 16:26:10;;;;;;;3.40;3.30;;;27.10;98.20;;;;;;4951385;29;20592;-71
2023/05/21 16:28:38;;;;;;;3.37;3.27;;;27.10;98.40;;;;;;4950361;28;20566;-72
2023/05/21 16:31:05;;;;;;;3.70;3.40;;;27.00;98.40;;;;;;4948452;28;20491;-72
2023/05/21 16:33:31;;;;;;;3.53;3.43;;;27.00;98.10;;;;;;4950843;28;20571;-74
2023/05/21 16:35:58;;;;;;;2.97;2.87;;;26.90;97.80;;;;;;4953251;28;20468;-73
2023/05/21 16:38:25;;;;;;;3.43;3.13;;;26.90;97.70;;;;;;4951658;28;20499;-71
2023/05/21 16:40:52;;;;;;;3.83;3.53;;;26.90;98.10;;;;;;4952114;28;20840;-73
2023/05/21 16:43:20;;;;;;;3.47;3.27;;;26.80;97.90;;;;;;4950569;28;20502;-71
2023/05/21 16:45:47;;;;;;;3.60;3.40;;;26.70;98.10;;;;;;4957919;28;20483;-70
2023/05/21 16:48:15;;;;;;;4.30;3.90;;;26.70;98.10;;;;;;4953748;28;20523;-73
2023/05/21 16:50:42;;;;;;;3.60;3.50;;;26.60;97.90;;;;;;4951552;29;20489;-73
2023/05/21 16:53:10;;;;;;;3.53;3.33;;;26.60;98.10;;;;;;4956267;28;20555;-71